createdAt,value
2023-02-19T00:00:56.754Z,10.80
2023-02-19T00:03:00.120Z,10.79
2023-02-19T00:05:03.512Z,10.82
2023-02-19T00:07:06.901Z,10.90
2023-02-19T00:09:11.283Z,10.88
2023-02-19T00:11:16.992Z,10.06
2023-02-19T00:13:21.809Z,10.73
2023-02-19T00:15:25.410Z,10.71
2023-02-19T00:17:28.896Z,10.75
2023-02-19T00:19:32.589Z,10.66
2023-02-19T00:21:36.096Z,10.80
2023-02-19T00:23:39.508Z,10.79
2023-02-19T00:25:42.828Z,10.74
2023-02-19T00:27:46.114Z,10.85
2023-02-19T00:29:52.397Z,10.53
2023-02-19T00:31:55.923Z,10.79
2023-02-19T00:34:01.760Z,10.59
2023-02-19T00:36:06.631Z,10.51
2023-02-19T00:38:09.980Z,10.41
2023-02-19T00:40:13.291Z,10.56
2023-02-19T00:42:16.670Z,10.60
2023-02-19T00:44:20.477Z,10.51
2023-02-19T00:46:27.881Z,10.71
2023-02-19T00:48:31.298Z,10.68
2023-02-19T00:50:35.611Z,10.85
2023-02-19T00:52:39.352Z,10.88
2023-02-19T00:54:42.669Z,10.72
2023-02-19T00:56:46.373Z,10.85
2023-02-19T00:58:49.907Z,10.88
2023-02-19T01:00:53.262Z,10.60
2023-02-19T01:02:58.026Z,10.69
2023-02-19T01:05:03.032Z,10.86
2023-02-19T01:07:07.062Z,10.85
2023-02-19T01:09:11.607Z,10.97
2023-02-19T01:11:16.741Z,10.86
2023-02-19T01:13:20.505Z,10.75
2023-02-19T01:15:24.257Z,10.72
2023-02-19T01:17:27.601Z,10.52
2023-02-19T01:19:32.612Z,10.65
2023-02-19T01:21:36.137Z,10.65
2023-02-19T01:23:40.572Z,10.83
2023-02-19T01:25:44.081Z,10.70
2023-02-19T01:27:47.422Z,10.67
2023-02-19T01:29:50.976Z,10.61
2023-02-19T01:31:54.575Z,10.73
2023-02-19T01:33:59.862Z,10.70
2023-02-19T01:36:06.740Z,10.98
2023-02-19T01:38:10.152Z,10.71
2023-02-19T01:40:13.499Z,10.54
2023-02-19T01:42:18.136Z,10.42
2023-02-19T01:45:13.417Z,10.67
2023-02-19T01:47:19.763Z,10.68
2023-02-19T01:49:28.823Z,10.60
2023-02-19T01:51:36.594Z,10.55
2023-02-19T01:53:44.752Z,10.70
2023-02-19T01:55:50.622Z,10.70
2023-02-19T01:57:57.250Z,10.63
2023-02-19T02:00:07.434Z,10.81
2023-02-19T02:02:17.586Z,10.54
2023-02-19T02:04:21.147Z,11.04
2023-02-19T02:06:26.831Z,10.66
2023-02-19T02:08:50.536Z,10.70
2023-02-19T02:10:58.364Z,10.54
2023-02-19T02:13:01.953Z,10.90
2023-02-19T02:15:06.412Z,10.78
2023-02-19T02:17:16.845Z,10.77
2023-02-19T02:19:33.184Z,10.61
2023-02-19T02:22:06.950Z,10.76
2023-02-19T02:24:36.768Z,10.83
2023-02-19T02:26:57.312Z,10.92
2023-02-19T02:29:31.389Z,10.53
2023-02-19T02:31:39.369Z,10.83
2023-02-19T02:33:48.497Z,10.85
2023-02-19T02:35:56.126Z,10.94
2023-02-19T02:38:04.686Z,10.89
2023-02-19T02:40:11.316Z,10.86
2023-02-19T02:42:30.326Z,10.72
2023-02-19T02:45:06.634Z,10.72
2023-02-19T02:47:31.295Z,10.73
2023-02-19T02:49:55.826Z,10.70
2023-02-19T02:52:21.829Z,10.57
2023-02-19T02:54:48.858Z,10.67
2023-02-19T02:56:55.623Z,10.83
2023-02-19T02:59:01.530Z,10.68
2023-02-19T03:01:27.959Z,10.71
2023-02-19T03:03:36.196Z,10.60
2023-02-19T03:05:55.332Z,10.60
2023-02-19T03:08:05.338Z,10.60
2023-02-19T03:10:13.383Z,10.75
2023-02-19T03:12:36.907Z,10.72
2023-02-19T03:15:02.457Z,10.77
2023-02-19T03:17:29.446Z,10.67
2023-02-19T03:19:43.913Z,10.52
2023-02-19T03:21:52.053Z,10.63
2023-02-19T03:24:14.721Z,10.69
2023-02-19T03:26:20.549Z,10.69
2023-02-19T03:28:47.116Z,10.59
2023-02-19T03:30:54.802Z,10.84
2023-02-19T03:33:03.041Z,10.83
2023-02-19T03:35:13.027Z,10.77
2023-02-19T03:37:25.192Z,10.78
2023-02-19T03:39:29.463Z,10.74
2023-02-19T03:41:39.273Z,10.87
2023-02-19T03:43:50.031Z,10.96
2023-02-19T03:46:01.528Z,10.86
2023-02-19T03:48:19.562Z,10.72
2023-02-19T03:50:29.124Z,10.84
2023-02-19T03:52:41.368Z,10.82
2023-02-19T03:54:52.788Z,10.77
2023-02-19T03:57:03.464Z,11.11
2023-02-19T03:59:12.878Z,11.07
2023-02-19T04:01:20.844Z,10.91
2023-02-19T04:03:30.310Z,10.73
2023-02-19T04:05:41.148Z,10.59
2023-02-19T04:07:50.400Z,10.86
2023-02-19T04:09:58.314Z,10.72
2023-02-19T04:12:02.829Z,10.68
2023-02-19T04:14:11.244Z,10.76
2023-02-19T04:16:21.363Z,10.86
2023-02-19T04:18:31.941Z,11.02
2023-02-19T04:20:43.302Z,11.01
2023-02-19T04:22:48.309Z,11.01
2023-02-19T04:24:56.397Z,10.89
2023-02-19T04:27:04.510Z,10.97
2023-02-19T04:29:07.955Z,10.84
2023-02-19T04:31:12.290Z,10.74
2023-02-19T04:33:16.061Z,10.94
2023-02-19T04:35:19.444Z,10.65
2023-02-19T04:37:24.459Z,10.60
2023-02-19T04:39:28.124Z,10.54
2023-02-19T04:41:31.630Z,10.58
2023-02-19T04:43:34.964Z,10.41
2023-02-19T04:45:38.783Z,10.57
2023-02-19T04:47:42.360Z,10.48
2023-02-19T04:49:46.215Z,10.57
2023-02-19T04:51:49.931Z,10.35
2023-02-19T04:53:56.262Z,10.48
2023-02-19T04:56:06.923Z,10.53
2023-02-19T04:58:10.456Z,10.54
2023-02-19T05:00:14.745Z,10.65
2023-02-19T05:02:18.234Z,10.64
2023-02-19T05:04:22.085Z,10.66
2023-02-19T05:06:25.612Z,10.66
2023-02-19T05:08:29.137Z,10.54
2023-02-19T05:10:34.708Z,10.41
2023-02-19T05:12:38.336Z,10.47
2023-02-19T05:14:41.767Z,10.37
2023-02-19T05:16:45.174Z,10.49
2023-02-19T05:18:48.716Z,10.50
2023-02-19T05:20:52.259Z,10.42
2023-02-19T05:22:55.641Z,10.38
2023-02-19T05:24:59.227Z,10.55
2023-02-19T05:27:03.956Z,10.57
2023-02-19T05:29:07.341Z,10.51
2023-02-19T05:31:12.704Z,10.49
2023-02-19T05:33:17.834Z,10.17
2023-02-19T05:35:21.403Z,10.42
2023-02-19T05:37:24.721Z,10.40
2023-02-19T05:39:28.198Z,10.15
2023-02-19T05:41:31.671Z,10.27
2023-02-19T05:43:36.556Z,10.04
2023-02-19T05:45:40.166Z,10.28
2023-02-19T05:47:43.639Z,9.84
2023-02-19T05:49:47.032Z,10.47
2023-02-19T05:51:51.642Z,10.54
2023-02-19T05:53:58.419Z,10.40
2023-02-19T05:56:02.537Z,10.45
2023-02-19T05:58:05.910Z,10.45
2023-02-19T06:00:12.342Z,10.24
2023-02-19T06:02:15.625Z,10.31
2023-02-19T06:04:20.414Z,10.36
2023-02-19T06:06:24.300Z,10.47
2023-02-19T06:08:27.721Z,10.48
2023-02-19T06:10:31.216Z,10.37
2023-02-19T06:12:34.733Z,10.48
2023-02-19T06:14:38.128Z,10.35
2023-02-19T06:16:42.970Z,10.43
2023-02-19T06:18:46.943Z,10.32
2023-02-19T06:20:50.295Z,10.40
2023-02-19T06:22:53.694Z,10.36
2023-02-19T06:24:57.112Z,10.25
2023-02-19T06:27:00.465Z,10.15
2023-02-19T06:29:04.082Z,9.96
2023-02-19T06:31:08.550Z,10.19
2023-02-19T06:33:13.444Z,10.16
2023-02-19T06:35:16.975Z,10.06
2023-02-19T06:37:20.348Z,10.03
2023-02-19T06:39:23.764Z,10.13
2023-02-19T06:41:27.284Z,10.16
2023-02-19T06:43:31.931Z,10.22
2023-02-19T06:45:35.515Z,10.17
2023-02-19T06:47:39.073Z,10.07
2023-02-19T06:49:44.411Z,10.04
2023-02-19T06:51:47.823Z,10.18
2023-02-19T06:53:51.700Z,9.95
2023-02-19T06:55:59.151Z,10.23
2023-02-19T06:58:02.941Z,10.13
2023-02-19T07:00:07.312Z,10.20
2023-02-19T07:02:12.276Z,10.17
2023-02-19T07:04:15.877Z,10.11
2023-02-19T07:06:21.525Z,9.95
2023-02-19T07:08:25.040Z,10.26
2023-02-19T07:10:28.600Z,10.16
2023-02-19T07:12:32.234Z,9.99
2023-02-19T07:14:35.950Z,10.13
2023-02-19T07:16:39.515Z,10.16
2023-02-19T07:18:42.959Z,10.09
2023-02-19T07:20:46.327Z,10.05
2023-02-19T07:22:51.344Z,9.48
2023-02-19T07:24:54.870Z,9.98
2023-02-19T07:26:58.353Z,10.09
2023-02-19T07:29:02.726Z,10.20
2023-02-19T07:31:07.084Z,9.62
2023-02-19T07:33:12.110Z,10.14
2023-02-19T07:35:15.598Z,10.02
2023-02-19T07:37:18.952Z,10.11
2023-02-19T07:39:23.692Z,10.05
2023-02-19T07:41:28.376Z,10.06
2023-02-19T07:43:36.838Z,10.05
2023-02-19T07:45:40.403Z,9.79
2023-02-19T07:47:44.803Z,10.06
2023-02-19T07:49:48.168Z,10.09
2023-02-19T07:51:51.843Z,10.22
2023-02-19T07:53:55.210Z,10.36
2023-02-19T07:56:02.698Z,10.39
2023-02-19T07:58:06.332Z,10.36
2023-02-19T08:00:10.780Z,10.36
2023-02-19T08:02:35.802Z,10.44
2023-02-19T08:04:39.140Z,10.49
2023-02-19T08:06:43.304Z,10.33
2023-02-19T08:08:46.669Z,10.26
2023-02-19T08:11:07.873Z,10.27
2023-02-19T08:13:26.203Z,10.33
2023-02-19T08:15:29.643Z,10.40
2023-02-19T08:17:32.909Z,10.36
2023-02-19T08:19:36.749Z,10.46
2023-02-19T08:21:40.127Z,10.18
2023-02-19T08:23:43.478Z,10.30
2023-02-19T08:25:47.387Z,10.33
2023-02-19T08:27:50.860Z,10.54
2023-02-19T08:29:55.930Z,10.49
2023-02-19T08:31:59.315Z,10.36
2023-02-19T08:34:02.911Z,10.42
2023-02-19T08:36:09.315Z,10.14
2023-02-19T08:38:14.219Z,10.42
2023-02-19T08:40:17.945Z,10.16
2023-02-19T08:42:21.215Z,10.48
2023-02-19T08:44:24.564Z,10.33
2023-02-19T08:46:29.452Z,10.54
2023-02-19T08:48:33.034Z,10.59
2023-02-19T08:50:37.459Z,10.60
2023-02-19T08:52:40.881Z,10.90
2023-02-19T08:54:44.416Z,10.78
2023-02-19T08:56:48.093Z,10.75
2023-02-19T08:58:51.602Z,10.75
2023-02-19T09:00:55.082Z,10.68
2023-02-19T09:03:00.312Z,10.42
2023-02-19T09:05:04.866Z,10.36
2023-02-19T09:07:10.935Z,10.63
2023-02-19T09:09:14.393Z,10.44
2023-02-19T09:11:18.174Z,10.67
2023-02-19T09:13:21.547Z,10.85
2023-02-19T09:15:25.157Z,10.81
2023-02-19T09:17:28.836Z,10.74
2023-02-19T09:19:34.399Z,10.61
2023-02-19T09:21:37.744Z,10.76
2023-02-19T09:23:41.311Z,10.81
2023-02-19T09:25:44.685Z,10.76
2023-02-19T09:27:48.032Z,10.68
2023-02-19T09:29:51.408Z,10.50
2023-02-19T09:31:58.089Z,10.61
2023-02-19T09:34:01.904Z,10.87
2023-02-19T09:36:07.399Z,10.90
2023-02-19T09:38:11.215Z,10.63
2023-02-19T09:40:15.878Z,10.68
2023-02-19T09:42:25.516Z,10.68
2023-02-19T09:44:31.648Z,10.53
2023-02-19T09:46:39.570Z,10.20
2023-02-19T09:48:43.723Z,10.79
2023-02-19T09:50:49.720Z,10.72
2023-02-19T09:52:57.332Z,10.83
2023-02-19T09:55:04.112Z,10.95
2023-02-19T09:57:14.917Z,10.94
2023-02-19T09:59:21.946Z,10.85
2023-02-19T10:01:28.859Z,10.52
2023-02-19T10:03:35.394Z,9.94
2023-02-19T10:05:40.884Z,10.57
2023-02-19T10:07:46.695Z,10.43
2023-02-19T10:09:56.572Z,10.13
2023-02-19T10:12:00.921Z,10.40
2023-02-19T10:14:09.423Z,10.19
2023-02-19T10:16:17.494Z,10.18
2023-02-19T10:18:24.174Z,10.19
2023-02-19T10:20:28.968Z,10.16
2023-02-19T10:22:35.831Z,9.81
2023-02-19T10:24:42.901Z,10.02
2023-02-19T10:26:47.970Z,10.21
2023-02-19T10:28:51.436Z,10.23
2023-02-19T10:30:56.935Z,10.28
2023-02-19T10:33:04.071Z,10.07
2023-02-19T10:35:13.637Z,10.31
2023-02-19T10:37:19.306Z,10.51
2023-02-19T10:39:42.217Z,10.66
2023-02-19T10:41:47.017Z,10.87
2023-02-19T10:43:55.495Z,10.77
2023-02-19T10:45:59.522Z,10.61
2023-02-19T10:48:04.351Z,10.44
2023-02-19T10:50:21.493Z,10.30
2023-02-19T10:52:27.824Z,10.43
2023-02-19T10:54:35.456Z,10.67
2023-02-19T10:56:40.706Z,10.74
2023-02-19T10:58:47.222Z,10.34
2023-02-19T11:01:12.047Z,11.08
2023-02-19T11:03:21.000Z,11.45
2023-02-19T11:05:25.055Z,11.34
2023-02-19T11:07:28.835Z,11.30
2023-02-19T11:09:38.567Z,11.35
2023-02-19T11:11:42.126Z,11.21
2023-02-19T11:13:49.898Z,10.88
2023-02-19T11:15:56.013Z,11.13
2023-02-19T11:18:04.998Z,11.17
2023-02-19T11:20:15.986Z,11.24
2023-02-19T11:22:28.514Z,11.41
2023-02-19T11:24:35.311Z,11.55
2023-02-19T11:26:39.260Z,11.65
2023-02-19T11:28:45.923Z,11.83
2023-02-19T11:30:50.836Z,11.86
2023-02-19T11:32:54.285Z,11.84
2023-02-19T11:35:18.573Z,11.77
2023-02-19T11:37:22.855Z,11.79
2023-02-19T11:39:32.152Z,12.10
2023-02-19T11:41:59.655Z,12.15
2023-02-19T11:44:20.485Z,12.07
2023-02-19T11:46:35.626Z,11.94
2023-02-19T11:48:53.791Z,11.80
2023-02-19T11:51:14.641Z,11.69
2023-02-19T11:53:26.063Z,11.61
2023-02-19T11:55:43.652Z,11.48
2023-02-19T11:57:49.329Z,11.44
2023-02-19T12:00:02.629Z,11.57
2023-02-19T12:02:38.959Z,11.77
2023-02-19T12:05:18.398Z,11.87
2023-02-19T12:07:35.535Z,11.70
2023-02-19T12:09:51.872Z,11.61
2023-02-19T12:12:16.021Z,11.65
2023-02-19T12:14:46.872Z,11.65
2023-02-19T12:16:57.017Z,11.78
2023-02-19T12:19:18.622Z,11.35
2023-02-19T12:21:34.666Z,11.50
2023-02-19T12:23:58.328Z,11.58
2023-02-19T12:26:08.940Z,11.50
2023-02-19T12:28:30.874Z,11.56
2023-02-19T12:31:00.896Z,11.71
2023-02-19T12:33:34.286Z,11.52
2023-02-19T12:35:56.585Z,11.43
2023-02-19T12:38:09.486Z,11.45
2023-02-19T12:40:25.456Z,11.64
2023-02-19T12:42:46.653Z,11.59
2023-02-19T12:44:55.283Z,11.66
2023-02-19T12:47:02.638Z,11.70
2023-02-19T12:49:13.018Z,11.68
2023-02-19T12:51:26.200Z,11.59
2023-02-19T12:53:40.850Z,11.71
2023-02-19T12:55:47.592Z,11.62
2023-02-19T12:57:52.270Z,11.87
2023-02-19T13:00:03.599Z,11.98
2023-02-19T13:02:16.973Z,11.97
2023-02-19T13:04:33.949Z,11.73
2023-02-19T13:06:44.104Z,11.74
2023-02-19T13:09:06.014Z,11.76
2023-02-19T13:11:16.449Z,11.55
2023-02-19T13:13:24.901Z,11.65
2023-02-19T13:15:33.969Z,11.72
2023-02-19T13:17:43.659Z,11.68
2023-02-19T13:19:49.744Z,11.72
2023-02-19T13:22:18.869Z,10.99
2023-02-19T13:24:26.733Z,11.40
2023-02-19T13:26:50.700Z,11.46
2023-02-19T13:29:08.416Z,11.47
2023-02-19T13:31:29.503Z,11.64
2023-02-19T13:33:44.198Z,11.78
2023-02-19T13:36:08.195Z,11.89
2023-02-19T13:38:14.525Z,11.84
2023-02-19T13:40:31.375Z,11.67
2023-02-19T13:42:37.058Z,11.71
2023-02-19T13:44:42.502Z,11.66
2023-02-19T13:46:47.571Z,11.71
2023-02-19T13:49:43.893Z,11.41
2023-02-19T13:51:51.380Z,11.51
2023-02-19T13:54:00.329Z,11.20
2023-02-19T13:56:03.661Z,11.17
2023-02-19T13:58:40.808Z,11.36
2023-02-19T14:00:51.651Z,11.27
2023-02-19T14:03:28.622Z,11.27
2023-02-19T14:06:00.075Z,11.18
2023-02-19T14:08:04.830Z,11.20
2023-02-19T14:10:13.600Z,11.14
2023-02-19T14:12:22.377Z,11.23
2023-02-19T14:14:34.854Z,11.23
2023-02-19T14:16:55.767Z,10.23
2023-02-19T14:18:59.348Z,10.63
2023-02-19T14:21:14.313Z,11.20
2023-02-19T14:23:24.513Z,11.05
2023-02-19T14:25:38.197Z,10.71
2023-02-19T14:27:41.742Z,11.21
2023-02-19T14:29:45.737Z,11.25
2023-02-19T14:31:49.211Z,11.15
2023-02-19T14:33:54.417Z,11.15
2023-02-19T14:36:02.301Z,11.17
2023-02-19T14:38:07.308Z,10.46
2023-02-19T14:40:20.320Z,10.49
2023-02-19T14:42:27.044Z,10.28
2023-02-19T14:44:33.007Z,10.18
2023-02-19T14:46:40.843Z,10.42
2023-02-19T14:48:48.546Z,10.50
2023-02-19T14:50:55.808Z,10.28
2023-02-19T14:53:02.682Z,10.34
2023-02-19T14:55:10.366Z,10.37
2023-02-19T14:57:20.155Z,10.48
2023-02-19T14:59:27.001Z,10.54
2023-02-19T15:01:30.553Z,10.53
2023-02-19T15:03:36.314Z,10.61
2023-02-19T15:05:40.005Z,10.61
2023-02-19T15:07:43.734Z,10.35
2023-02-19T15:09:49.968Z,10.42
2023-02-19T15:11:54.997Z,10.47
2023-02-19T15:14:01.870Z,10.34
2023-02-19T15:16:06.121Z,10.40
2023-02-19T15:18:16.393Z,10.49
2023-02-19T15:20:23.967Z,10.31
2023-02-19T15:22:29.279Z,10.41
2023-02-19T15:24:33.030Z,10.48
2023-02-19T15:26:38.957Z,10.61
2023-02-19T15:28:42.323Z,10.54
2023-02-19T15:30:47.298Z,10.45
2023-02-19T15:32:55.050Z,10.35
2023-02-19T15:34:59.762Z,10.54
2023-02-19T15:37:05.802Z,10.43
2023-02-19T15:39:19.706Z,10.11
2023-02-19T15:41:24.935Z,10.25
2023-02-19T15:43:31.152Z,10.34
2023-02-19T15:45:41.615Z,10.30
2023-02-19T15:47:52.636Z,10.27
2023-02-19T15:50:02.878Z,10.28
2023-02-19T15:52:11.305Z,10.30
2023-02-19T15:54:27.129Z,10.36
2023-02-19T15:56:33.201Z,10.49
2023-02-19T15:58:42.652Z,10.41
2023-02-19T16:00:50.353Z,10.36
2023-02-19T16:02:55.251Z,10.47
2023-02-19T16:05:02.081Z,10.51
2023-02-19T16:07:05.621Z,10.53
2023-02-19T16:09:22.276Z,10.41
2023-02-19T16:11:31.271Z,10.43
2023-02-19T16:13:36.010Z,10.34
2023-02-19T16:15:40.643Z,10.40
2023-02-19T16:17:45.352Z,10.21
2023-02-19T16:19:55.391Z,10.52
2023-02-19T16:22:00.406Z,10.59
2023-02-19T16:24:12.391Z,10.48
2023-02-19T16:26:16.284Z,10.51
2023-02-19T16:28:23.967Z,10.60
2023-02-19T16:30:34.140Z,10.63
2023-02-19T16:32:37.544Z,10.66
2023-02-19T16:34:44.150Z,10.69
2023-02-19T16:36:49.304Z,10.59
2023-02-19T16:39:20.452Z,10.62
2023-02-19T16:41:23.751Z,10.55
2023-02-19T16:43:32.815Z,10.31
2023-02-19T16:45:36.211Z,10.43
2023-02-19T16:47:41.608Z,10.37
2023-02-19T16:49:45.278Z,10.13
2023-02-19T16:51:50.577Z,10.10
2023-02-19T16:53:54.612Z,10.07
2023-02-19T16:55:58.404Z,10.08
2023-02-19T16:58:02.458Z,10.11
2023-02-19T17:00:06.751Z,10.16
2023-02-19T17:02:17.086Z,10.12
2023-02-19T17:04:20.564Z,10.12
2023-02-19T17:06:24.016Z,10.00
2023-02-19T17:08:35.349Z,9.99
2023-02-19T17:10:38.615Z,9.60
2023-02-19T17:12:42.263Z,10.02
2023-02-19T17:14:45.766Z,9.90
2023-02-19T17:16:49.373Z,9.75
2023-02-19T17:18:53.121Z,9.86
2023-02-19T17:21:01.358Z,9.91
2023-02-19T17:23:04.958Z,9.85
2023-02-19T17:25:09.832Z,9.99
2023-02-19T17:27:13.527Z,10.01
2023-02-19T17:29:18.433Z,10.04
2023-02-19T17:31:21.909Z,10.08
2023-02-19T17:33:25.408Z,10.11
2023-02-19T17:35:28.772Z,9.99
2023-02-19T17:37:32.113Z,10.01
2023-02-19T17:39:35.450Z,9.90
2023-02-19T17:41:40.241Z,9.83
2023-02-19T17:43:43.766Z,9.88
2023-02-19T17:45:47.430Z,9.83
2023-02-19T17:47:51.339Z,9.60
2023-02-19T17:49:55.685Z,9.91
2023-02-19T17:51:59.603Z,9.92
2023-02-19T17:54:03.033Z,9.87
2023-02-19T17:56:06.850Z,9.83
2023-02-19T17:58:12.230Z,9.94
2023-02-19T18:00:20.240Z,10.02
2023-02-19T18:02:23.551Z,10.03
2023-02-19T18:04:27.025Z,10.04
2023-02-19T18:06:30.320Z,10.02
2023-02-19T18:08:33.708Z,10.03
2023-02-19T18:10:37.108Z,9.70
2023-02-19T18:12:40.629Z,9.73
2023-02-19T18:14:47.650Z,9.73
2023-02-19T18:16:51.377Z,9.76
2023-02-19T18:18:54.982Z,9.83
2023-02-19T18:20:58.439Z,9.91
2023-02-19T18:23:02.023Z,9.58
2023-02-19T18:25:05.563Z,9.58
2023-02-19T18:27:08.950Z,9.60
2023-02-19T18:29:12.597Z,9.54
2023-02-19T18:31:17.646Z,9.72
2023-02-19T18:33:21.510Z,9.74
2023-02-19T18:35:24.958Z,9.40
2023-02-19T18:37:31.290Z,9.56
2023-02-19T18:39:34.694Z,9.53
2023-02-19T18:41:38.023Z,9.59
2023-02-19T18:43:41.836Z,9.54
2023-02-19T18:45:46.554Z,9.67
2023-02-19T18:47:51.869Z,9.58
2023-02-19T18:49:57.455Z,9.69
2023-02-19T18:52:01.865Z,9.67
2023-02-19T18:54:05.342Z,9.62
2023-02-19T18:56:09.121Z,9.73
2023-02-19T18:58:12.541Z,9.71
2023-02-19T19:00:19.834Z,9.46
2023-02-19T19:02:23.325Z,9.62
2023-02-19T19:04:28.132Z,9.61
2023-02-19T19:06:32.103Z,9.83
2023-02-19T19:08:35.494Z,9.85
2023-02-19T19:10:38.861Z,9.90
2023-02-19T19:12:42.251Z,9.84
2023-02-19T19:14:45.918Z,9.88
2023-02-19T19:16:49.969Z,9.83
2023-02-19T19:18:54.213Z,9.71
2023-02-19T19:21:03.191Z,9.53
2023-02-19T19:23:06.591Z,9.58
2023-02-19T19:25:10.463Z,9.47
2023-02-19T19:27:14.730Z,9.62
2023-02-19T19:29:19.943Z,9.61
2023-02-19T19:31:24.736Z,9.56
2023-02-19T19:33:28.320Z,9.36
2023-02-19T19:35:31.645Z,9.24
2023-02-19T19:37:36.343Z,9.32
2023-02-19T19:39:39.934Z,8.98
2023-02-19T19:41:43.241Z,9.27
2023-02-19T19:43:47.137Z,9.43
2023-02-19T19:45:51.107Z,9.46
2023-02-19T19:47:54.742Z,9.45
2023-02-19T19:49:58.152Z,9.51
2023-02-19T19:52:01.858Z,9.49
2023-02-19T19:54:08.364Z,9.55
2023-02-19T19:56:11.727Z,9.57
2023-02-19T19:58:16.755Z,9.54
2023-02-19T20:00:23.411Z,9.55
2023-02-19T20:02:26.880Z,9.61
2023-02-19T20:04:30.724Z,9.70
2023-02-19T20:06:34.001Z,9.72
2023-02-19T20:08:37.353Z,9.66
2023-02-19T20:10:43.454Z,9.45
2023-02-19T20:12:49.438Z,9.19
2023-02-19T20:14:52.756Z,9.11
2023-02-19T20:16:56.866Z,9.14
2023-02-19T20:19:00.405Z,9.14
2023-02-19T20:21:04.402Z,8.98
2023-02-19T20:23:07.785Z,9.08
2023-02-19T20:25:11.684Z,8.89
2023-02-19T20:27:16.513Z,9.00
2023-02-19T20:29:20.581Z,8.94
2023-02-19T20:31:24.426Z,8.89
2023-02-19T20:33:27.891Z,8.89
2023-02-19T20:35:31.810Z,8.93
2023-02-19T20:37:35.213Z,8.76
2023-02-19T20:39:38.799Z,8.88
2023-02-19T20:41:45.797Z,8.92
2023-02-19T20:43:51.149Z,9.05
2023-02-19T20:45:54.515Z,8.96
2023-02-19T20:47:58.045Z,8.89
2023-02-19T20:50:01.903Z,8.89
2023-02-19T20:52:07.560Z,8.99
2023-02-19T20:54:10.907Z,8.63
2023-02-19T20:56:16.467Z,8.99
2023-02-19T20:58:21.094Z,9.00
2023-02-19T21:00:25.988Z,8.87
2023-02-19T21:02:29.980Z,8.94
2023-02-19T21:04:33.862Z,8.97
2023-02-19T21:06:37.529Z,8.97
2023-02-19T21:08:40.940Z,8.97
2023-02-19T21:10:45.483Z,8.98
2023-02-19T21:12:50.532Z,8.99
2023-02-19T21:14:53.898Z,8.84
2023-02-19T21:16:58.650Z,8.80
2023-02-19T21:19:02.790Z,8.91
2023-02-19T21:21:06.576Z,8.92
2023-02-19T21:23:09.986Z,8.98
2023-02-19T21:25:13.430Z,9.02
2023-02-19T21:27:16.838Z,8.79
2023-02-19T21:29:22.665Z,8.67
2023-02-19T21:31:26.235Z,8.57
2023-02-19T21:33:31.117Z,8.43
2023-02-19T21:35:34.452Z,8.53
2023-02-19T21:37:37.962Z,8.55
2023-02-19T21:39:42.748Z,8.39
2023-02-19T21:41:46.462Z,8.34
2023-02-19T21:43:49.810Z,8.45
2023-02-19T21:45:53.219Z,8.38
2023-02-19T21:47:56.690Z,8.22
2023-02-19T21:50:01.412Z,8.08
2023-02-19T21:52:04.844Z,8.17
2023-02-19T21:54:09.661Z,8.18
2023-02-19T21:56:13.571Z,8.44
2023-02-19T21:58:17.072Z,8.41
2023-02-19T22:00:20.986Z,8.39
2023-02-19T22:02:24.399Z,8.38
2023-02-19T22:04:27.825Z,7.85
2023-02-19T22:06:32.898Z,8.49
2023-02-19T22:08:36.268Z,8.52
2023-02-19T22:10:42.346Z,8.36
2023-02-19T22:12:45.850Z,8.46
2023-02-19T22:14:49.196Z,8.46
2023-02-19T22:16:52.756Z,8.47
2023-02-19T22:18:59.181Z,8.55
2023-02-19T22:21:04.336Z,8.60
2023-02-19T22:23:09.254Z,8.59
2023-02-19T22:25:12.623Z,8.66
2023-02-19T22:27:18.359Z,8.68
2023-02-19T22:29:21.718Z,8.69
2023-02-19T22:31:26.655Z,8.72
2023-02-19T22:33:30.442Z,8.61
2023-02-19T22:35:33.785Z,8.65
2023-02-19T22:37:37.138Z,8.69
2023-02-19T22:39:41.909Z,8.69
2023-02-19T22:41:45.438Z,8.73
2023-02-19T22:43:50.289Z,8.79
2023-02-19T22:45:53.661Z,8.79
2023-02-19T22:47:57.507Z,8.76
2023-02-19T22:50:00.870Z,8.71
2023-02-19T22:52:07.983Z,8.64
2023-02-19T22:54:11.251Z,8.41
2023-02-19T22:56:17.651Z,8.54
2023-02-19T22:58:21.086Z,8.38
2023-02-19T23:00:24.532Z,8.63
2023-02-19T23:02:27.905Z,8.62
2023-02-19T23:04:31.404Z,8.66
2023-02-19T23:06:35.802Z,8.71
2023-02-19T23:08:39.316Z,8.74
2023-02-19T23:10:42.855Z,8.56
2023-02-19T23:12:47.546Z,8.59
2023-02-19T23:14:50.838Z,8.65
2023-02-19T23:16:54.271Z,8.65
2023-02-19T23:18:57.658Z,8.64
2023-02-19T23:21:01.149Z,8.49
2023-02-19T23:23:04.500Z,8.49
2023-02-19T23:25:08.047Z,8.39
2023-02-19T23:27:11.348Z,8.36
2023-02-19T23:29:18.595Z,8.31
2023-02-19T23:31:22.234Z,7.68
2023-02-19T23:33:25.724Z,8.43
2023-02-19T23:35:29.102Z,8.46
2023-02-19T23:37:32.549Z,8.48
2023-02-19T23:39:35.869Z,8.49
2023-02-19T23:41:39.557Z,8.48
2023-02-19T23:43:42.945Z,8.46
2023-02-19T23:45:47.800Z,8.32
2023-02-19T23:47:51.338Z,8.26
2023-02-19T23:49:54.857Z,8.09
2023-02-19T23:51:58.242Z,8.25
2023-02-19T23:54:01.550Z,8.13
2023-02-19T23:56:05.346Z,8.15
2023-02-19T23:58:08.689Z,7.95
